sensor_id;sensor_type;location;lat;lon;timestamp;pressure;altitude;pressure_sealevel;temperature;humidity
29315;BME280;16320;53.954;9.506;2023-05-12T00:02:55;101530.13;;;12.58;100.00
29315;BME280;16320;53.954;9.506;2023-05-12T00:06:00;101538.13;;;12.56;100.00
29315;BME280;16320;53.954;9.506;2023-05-12T00:09:07;101531.97;;;12.56;100.00
29315;BME280;16320;53.954;9.506;2023-05-12T00:12:12;101532.06;;;12.54;100.00
29315;BME280;16320;53.954;9.506;2023-05-12T00:15:17;101537.25;;;12.56;100.00
29315;BME280;16320;53.954;9.506;2023-05-12T00:18:24;101539.09;;;12.54;100.00
29315;BME280;16320;53.954;9.506;2023-05-12T00:21:28;101541.94;;;12.49;100.00
29315;BME280;16320;53.954;9.506;2023-05-12T00:24:33;101548.94;;;12.50;100.00
29315;BME280;16320;53.954;9.506;2023-05-12T00:27:37;101551.50;;;12.52;100.00
29315;BME280;16320;53.954;9.506;2023-05-12T00:30:42;101555.94;;;12.51;100.00
29315;BME280;16320;53.954;9.506;2023-05-12T00:33:46;101559.47;;;12.50;100.00
29315;BME280;16320;53.954;9.506;2023-05-12T00:36:51;101555.13;;;12.49;100.00
29315;BME280;16320;53.954;9.506;2023-05-12T00:39:55;101563.16;;;12.46;100.00
29315;BME280;16320;53.954;9.506;2023-05-12T00:42:59;101554.47;;;12.44;100.00
29315;BME280;16320;53.954;9.506;2023-05-12T00:46:05;101552.63;;;12.46;100.00
29315;BME280;16320;53.954;9.506;2023-05-12T00:49:09;101550.72;;;12.50;100.00
29315;BME280;16320;53.954;9.506;2023-05-12T00:52:13;101543.66;;;12.50;100.00
29315;BME280;16320;53.954;9.506;2023-05-12T00:55:18;101541.94;;;12.49;100.00
29315;BME280;16320;53.954;9.506;2023-05-12T00:58:23;101547.34;;;12.46;100.00
29315;BME280;16320;53.954;9.506;2023-05-12T01:01:27;101552.00;;;12.41;100.00
29315;BME280;16320;53.954;9.506;2023-05-12T01:04:35;101552.78;;;12.43;100.00
29315;BME280;16320;53.954;9.506;2023-05-12T01:07:40;101556.47;;;12.39;100.00
29315;BME280;16320;53.954;9.506;2023-05-12T01:10:47;101554.94;;;12.35;100.00
29315;BME280;16320;53.954;9.506;2023-05-12T01:13:51;101563.75;;;12.34;100.00
29315;BME280;16320;53.954;9.506;2023-05-12T01:16:59;101552.56;;;12.29;100.00
29315;BME280;16320;53.954;9.506;2023-05-12T01:20:06;101566.84;;;12.23;100.00
29315;BME280;16320;53.954;9.506;2023-05-12T01:23:14;101569.41;;;12.24;100.00
29315;BME280;16320;53.954;9.506;2023-05-12T01:26:19;101581.88;;;12.21;100.00
29315;BME280;16320;53.954;9.506;2023-05-12T01:29:25;101577.59;;;12.18;100.00
29315;BME280;16320;53.954;9.506;2023-05-12T01:32:30;101575.63;;;12.23;100.00
29315;BME280;16320;53.954;9.506;2023-05-12T01:35:35;101572.13;;;12.23;100.00
29315;BME280;16320;53.954;9.506;2023-05-12T01:38:39;101574.69;;;12.24;100.00
29315;BME280;16320;53.954;9.506;2023-05-12T01:41:43;101573.66;;;12.29;100.00
29315;BME280;16320;53.954;9.506;2023-05-12T01:44:47;101577.69;;;12.36;100.00
29315;BME280;16320;53.954;9.506;2023-05-12T01:47:52;101575.69;;;12.41;100.00
29315;BME280;16320;53.954;9.506;2023-05-12T01:50:59;101578.25;;;12.42;100.00
29315;BME280;16320;53.954;9.506;2023-05-12T01:54:04;101567.66;;;12.44;100.00
29315;BME280;16320;53.954;9.506;2023-05-12T01:57:09;101578.97;;;12.46;100.00
29315;BME280;16320;53.954;9.506;2023-05-12T02:00:13;101579.91;;;12.45;100.00
29315;BME280;16320;53.954;9.506;2023-05-12T02:03:18;101579.91;;;12.45;100.00
29315;BME280;16320;53.954;9.506;2023-05-12T02:06:22;101584.09;;;12.49;100.00
29315;BME280;16320;53.954;9.506;2023-05-12T02:09:27;101580.69;;;12.47;100.00
29315;BME280;16320;53.954;9.506;2023-05-12T02:12:31;101582.28;;;12.51;100.00
29315;BME280;16320;53.954;9.506;2023-05-12T02:15:37;101584.16;;;12.48;100.00
29315;BME280;16320;53.954;9.506;2023-05-12T02:18:41;101591.25;;;12.47;100.00
29315;BME280;16320;53.954;9.506;2023-05-12T02:21:46;101596.50;;;12.47;100.00
29315;BME280;16320;53.954;9.506;2023-05-12T02:24:51;101603.63;;;12.45;100.00
29315;BME280;16320;53.954;9.506;2023-05-12T02:27:55;101604.47;;;12.45;100.00
29315;BME280;16320;53.954;9.506;2023-05-12T02:31:00;101603.56;;;12.47;100.00
29315;BME280;16320;53.954;9.506;2023-05-12T02:34:04;101607.03;;;12.47;100.00
29315;BME280;16320;53.954;9.506;2023-05-12T02:37:09;101611.47;;;12.47;100.00
29315;BME280;16320;53.954;9.506;2023-05-12T02:40:14;101621.13;;;12.46;100.00
29315;BME280;16320;53.954;9.506;2023-05-12T02:43:19;101609.63;;;12.49;100.00
29315;BME280;16320;53.954;9.506;2023-05-12T02:46:24;101614.81;;;12.50;100.00
29315;BME280;16320;53.954;9.506;2023-05-12T02:49:28;101613.97;;;12.50;100.00
29315;BME280;16320;53.954;9.506;2023-05-12T02:52:33;101615.59;;;12.52;100.00
29315;BME280;16320;53.954;9.506;2023-05-12T02:55:37;101611.25;;;12.51;100.00
29315;BME280;16320;53.954;9.506;2023-05-12T02:58:42;101599.78;;;12.52;100.00
29315;BME280;16320;53.954;9.506;2023-05-12T03:01:46;101604.91;;;12.55;100.00
29315;BME280;16320;53.954;9.506;2023-05-12T03:04:51;101607.53;;;12.55;100.00
29315;BME280;16320;53.954;9.506;2023-05-12T03:07:55;101613.91;;;12.51;100.00
29315;BME280;16320;53.954;9.506;2023-05-12T03:10:59;101610.47;;;12.49;100.00
29315;BME280;16320;53.954;9.506;2023-05-12T03:14:04;101608.63;;;12.51;100.00
29315;BME280;16320;53.954;9.506;2023-05-12T03:17:08;101609.63;;;12.49;100.00
29315;BME280;16320;53.954;9.506;2023-05-12T03:20:12;101615.59;;;12.52;100.00
29315;BME280;16320;53.954;9.506;2023-05-12T03:23:17;101613.09;;;12.49;100.00
29315;BME280;16320;53.954;9.506;2023-05-12T03:26:21;101614.03;;;12.48;100.00
29315;BME280;16320;53.954;9.506;2023-05-12T03:29:25;101621.06;;;12.48;100.00
29315;BME280;16320;53.954;9.506;2023-05-12T03:32:30;101626.41;;;12.46;100.00
29315;BME280;16320;53.954;9.506;2023-05-12T03:35:35;101628.25;;;12.44;100.00
29315;BME280;16320;53.954;9.506;2023-05-12T03:38:39;101632.75;;;12.42;100.00
29315;BME280;16320;53.954;9.506;2023-05-12T03:41:43;101634.41;;;12.44;100.00
29315;BME280;16320;53.954;9.506;2023-05-12T03:44:51;101637.94;;;12.43;100.00
29315;BME280;16320;53.954;9.506;2023-05-12T03:47:56;101628.13;;;12.47;100.00
29315;BME280;16320;53.954;9.506;2023-05-12T03:51:00;101631.41;;;12.52;100.00
29315;BME280;16320;53.954;9.506;2023-05-12T03:54:05;101638.38;;;12.53;100.00
29315;BME280;16320;53.954;9.506;2023-05-12T03:57:11;101640.97;;;12.55;100.00
29315;BME280;16320;53.954;9.506;2023-05-12T04:00:16;101637.31;;;12.57;100.00
29315;BME280;16320;53.954;9.506;2023-05-12T04:03:21;101629.28;;;12.60;100.00
29315;BME280;16320;53.954;9.506;2023-05-12T04:06:26;101627.44;;;12.62;100.00
29315;BME280;16320;53.954;9.506;2023-05-12T04:09:30;101636.25;;;12.61;100.00
29315;BME280;16320;53.954;9.506;2023-05-12T04:12:36;101638.91;;;12.61;100.00
29315;BME280;16320;53.954;9.506;2023-05-12T04:15:41;101642.16;;;12.67;100.00
29315;BME280;16320;53.954;9.506;2023-05-12T04:18:45;101640.31;;;12.69;100.00
29315;BME280;16320;53.954;9.506;2023-05-12T04:21:49;101641.25;;;12.68;100.00
29315;BME280;16320;53.954;9.506;2023-05-12T04:24:54;101641.97;;;12.71;100.00
29315;BME280;16320;53.954;9.506;2023-05-12T04:27:58;101651.59;;;12.72;100.00
29315;BME280;16320;53.954;9.506;2023-05-12T04:31:03;101663.81;;;12.73;100.00
29315;BME280;16320;53.954;9.506;2023-05-12T04:34:07;101660.28;;;12.74;100.00
29315;BME280;16320;53.954;9.506;2023-05-12T04:37:11;101662.84;;;12.76;100.00
29315;BME280;16320;53.954;9.506;2023-05-12T04:40:16;101663.56;;;12.79;100.00
29315;BME280;16320;53.954;9.506;2023-05-12T04:43:21;101666.97;;;12.81;100.00
29315;BME280;16320;53.954;9.506;2023-05-12T04:46:28;101665.22;;;12.82;100.00
29315;BME280;16320;53.954;9.506;2023-05-12T04:49:33;101666.75;;;12.86;100.00
29315;BME280;16320;53.954;9.506;2023-05-12T04:52:37;101655.94;;;12.92;100.00
29315;BME280;16320;53.954;9.506;2023-05-12T04:55:42;101661.00;;;12.97;100.00
29315;BME280;16320;53.954;9.506;2023-05-12T04:58:48;101668.84;;;12.98;100.00
29315;BME280;16320;53.954;9.506;2023-05-12T05:01:53;101664.28;;;13.02;100.00
29315;BME280;16320;53.954;9.506;2023-05-12T05:04:58;101668.47;;;13.06;100.00
29315;BME280;16320;53.954;9.506;2023-05-12T05:08:03;101669.34;;;13.07;100.00
29315;BME280;16320;53.954;9.506;2023-05-12T05:11:07;101669.06;;;13.13;100.00
29315;BME280;16320;53.954;9.506;2023-05-12T05:14:11;101676.66;;;13.19;100.00
29315;BME280;16320;53.954;9.506;2023-05-12T05:17:16;101675.59;;;13.23;100.00
29315;BME280;16320;53.954;9.506;2023-05-12T05:20:20;101677.88;;;13.31;100.00
29315;BME280;16320;53.954;9.506;2023-05-12T05:23:27;101685.75;;;13.32;100.00
29315;BME280;16320;53.954;9.506;2023-05-12T05:26:32;101690.44;;;13.26;100.00
29315;BME280;16320;53.954;9.506;2023-05-12T05:29:36;101698.25;;;13.27;100.00
29315;BME280;16320;53.954;9.506;2023-05-12T05:32:41;101708.03;;;13.25;100.00
29315;BME280;16320;53.954;9.506;2023-05-12T05:35:45;101715.94;;;13.25;100.00
29315;BME280;16320;53.954;9.506;2023-05-12T05:38:50;101724.63;;;13.27;100.00
29315;BME280;16320;53.954;9.506;2023-05-12T05:41:54;101720.81;;;13.34;100.00
29315;BME280;16320;53.954;9.506;2023-05-12T05:44:59;101729.50;;;13.36;100.00
29315;BME280;16320;53.954;9.506;2023-05-12T05:48:03;101728.38;;;13.42;100.00
29315;BME280;16320;53.954;9.506;2023-05-12T05:51:08;101721.88;;;13.49;100.00
29315;BME280;16320;53.954;9.506;2023-05-12T05:54:14;101723.38;;;13.55;100.00
29315;BME280;16320;53.954;9.506;2023-05-12T05:57:18;101725.84;;;13.58;100.00
29315;BME280;16320;53.954;9.506;2023-05-12T06:00:23;101729.13;;;13.63;100.00
29315;BME280;16320;53.954;9.506;2023-05-12T06:03:27;101730.59;;;13.69;100.00
29315;BME280;16320;53.954;9.506;2023-05-12T06:06:31;101741.09;;;13.70;100.00
29315;BME280;16320;53.954;9.506;2023-05-12T06:09:36;101747.00;;;13.76;100.00
29315;BME280;16320;53.954;9.506;2023-05-12T06:12:40;101752.13;;;13.79;100.00
29315;BME280;16320;53.954;9.506;2023-05-12T06:15:45;101760.81;;;13.81;100.00
29315;BME280;16320;53.954;9.506;2023-05-12T06:18:50;101751.91;;;13.83;100.00
29315;BME280;16320;53.954;9.506;2023-05-12T06:21:54;101760.38;;;13.90;100.00
29315;BME280;16320;53.954;9.506;2023-05-12T06:24:59;101746.25;;;13.91;100.00
29315;BME280;16320;53.954;9.506;2023-05-12T06:28:03;101751.00;;;14.02;100.00
29315;BME280;16320;53.954;9.506;2023-05-12T06:31:08;101766.31;;;14.13;100.00
29315;BME280;16320;53.954;9.506;2023-05-12T06:34:12;101750.16;;;14.19;100.00
29315;BME280;16320;53.954;9.506;2023-05-12T06:37:46;101740.28;;;14.22;100.00
29315;BME280;16320;53.954;9.506;2023-05-12T06:41:02;101743.78;;;14.23;100.00
29315;BME280;16320;53.954;9.506;2023-05-12T06:44:12;101749.38;;;14.34;100.00
29315;BME280;16320;53.954;9.506;2023-05-12T06:47:20;101752.81;;;14.36;100.00
29315;BME280;16320;53.954;9.506;2023-05-12T06:50:24;101760.56;;;14.39;100.00
29315;BME280;16320;53.954;9.506;2023-05-12T06:53:29;101764.59;;;14.46;100.00
29315;BME280;16320;53.954;9.506;2023-05-12T06:56:34;101757.97;;;14.55;100.00
29315;BME280;16320;53.954;9.506;2023-05-12T06:59:38;101748.59;;;14.67;100.00
29315;BME280;16320;53.954;9.506;2023-05-12T07:02:42;101742.88;;;14.75;100.00
29315;BME280;16320;53.954;9.506;2023-05-12T07:05:47;101749.50;;;14.83;100.00
29315;BME280;16320;53.954;9.506;2023-05-12T07:08:51;101758.97;;;14.88;100.00
29315;BME280;16320;53.954;9.506;2023-05-12T07:11:55;101756.69;;;14.97;100.00
29315;BME280;16320;53.954;9.506;2023-05-12T07:15:00;101751.31;;;14.99;100.00
29315;BME280;16320;53.954;9.506;2023-05-12T07:18:04;101749.69;;;15.12;100.00
29315;BME280;16320;53.954;9.506;2023-05-12T07:21:09;101755.41;;;15.20;100.00
29315;BME280;16320;53.954;9.506;2023-05-12T07:24:14;101755.78;;;15.30;100.00
29315;BME280;16320;53.954;9.506;2023-05-12T07:27:19;101747.06;;;15.44;100.00
29315;BME280;16320;53.954;9.506;2023-05-12T07:30:24;101728.78;;;15.55;100.00
29315;BME280;16320;53.954;9.506;2023-05-12T07:33:29;101727.72;;;15.74;100.00
29315;BME280;16320;53.954;9.506;2023-05-12T07:36:33;101728.56;;;15.76;100.00
29315;BME280;16320;53.954;9.506;2023-05-12T07:39:37;101730.47;;;15.88;100.00
29315;BME280;16320;53.954;9.506;2023-05-12T07:42:42;101723.81;;;15.97;100.00
29315;BME280;16320;53.954;9.506;2023-05-12T07:45:46;101720.66;;;16.05;100.00
29315;BME280;16320;53.954;9.506;2023-05-12T07:48:51;101734.16;;;16.16;100.00
29315;BME280;16320;53.954;9.506;2023-05-12T07:51:55;101754.47;;;16.32;100.00
29315;BME280;16320;53.954;9.506;2023-05-12T07:55:05;101743.50;;;16.38;100.00
29315;BME280;16320;53.954;9.506;2023-05-12T07:58:22;101742.25;;;16.43;100.00
29315;BME280;16320;53.954;9.506;2023-05-12T08:01:31;101761.22;;;16.52;100.00
29315;BME280;16320;53.954;9.506;2023-05-12T08:04:38;101761.50;;;16.61;100.00
29315;BME280;16320;53.954;9.506;2023-05-12T08:07:46;101757.25;;;16.73;100.00
29315;BME280;16320;53.954;9.506;2023-05-12T08:10:50;101754.22;;;16.79;100.00
29315;BME280;16320;53.954;9.506;2023-05-12T08:13:56;101768.13;;;16.83;100.00
29315;BME280;16320;53.954;9.506;2023-05-12T08:17:02;101743.91;;;16.89;100.00
29315;BME280;16320;53.954;9.506;2023-05-12T08:20:09;101766.53;;;16.80;100.00
29315;BME280;16320;53.954;9.506;2023-05-12T08:23:17;101778.22;;;16.92;100.00
29315;BME280;16320;53.954;9.506;2023-05-12T08:26:29;101797.75;;;16.91;100.00
29315;BME280;16320;53.954;9.506;2023-05-12T08:29:42;101794.25;;;17.05;100.00
29315;BME280;16320;53.954;9.506;2023-05-12T08:32:52;101767.13;;;17.29;100.00
29315;BME280;16320;53.954;9.506;2023-05-12T08:36:07;101768.03;;;17.42;100.00
29315;BME280;16320;53.954;9.506;2023-05-12T08:39:23;101763.72;;;17.54;100.00
29315;BME280;16320;53.954;9.506;2023-05-12T08:42:39;101773.97;;;17.60;100.00
29315;BME280;16320;53.954;9.506;2023-05-12T08:45:56;101778.53;;;17.58;100.00
29315;BME280;16320;53.954;9.506;2023-05-12T08:49:03;101753.22;;;17.80;100.00
29315;BME280;16320;53.954;9.506;2023-05-12T08:52:09;101762.66;;;17.84;100.00
29315;BME280;16320;53.954;9.506;2023-05-12T08:55:17;101741.91;;;18.03;100.00
29315;BME280;16320;53.954;9.506;2023-05-12T08:58:30;101753.69;;;18.26;100.00
29315;BME280;16320;53.954;9.506;2023-05-12T09:01:49;101748.16;;;18.42;100.00
29315;BME280;16320;53.954;9.506;2023-05-12T09:04:55;101732.75;;;18.60;100.00
29315;BME280;16320;53.954;9.506;2023-05-12T09:08:02;101732.94;;;18.70;100.00
29315;BME280;16320;53.954;9.506;2023-05-12T09:11:21;101729.81;;;18.76;100.00
29315;BME280;16320;53.954;9.506;2023-05-12T09:14:30;101730.69;;;18.77;100.00
29315;BME280;16320;53.954;9.506;2023-05-12T09:17:43;101735.81;;;18.80;100.00
29315;BME280;16320;53.954;9.506;2023-05-12T09:20:49;101748.13;;;18.81;100.00
29315;BME280;16320;53.954;9.506;2023-05-12T09:24:01;101737.84;;;18.89;100.00
29315;BME280;16320;53.954;9.506;2023-05-12T09:27:10;101730.03;;;18.99;100.00
29315;BME280;16320;53.954;9.506;2023-05-12T09:30:15;101727.25;;;19.13;100.00
29315;BME280;16320;53.954;9.506;2023-05-12T09:33:24;101743.75;;;19.06;100.00
29315;BME280;16320;53.954;9.506;2023-05-12T09:36:28;101726.31;;;19.01;100.00
29315;BME280;16320;53.954;9.506;2023-05-12T09:39:34;101725.72;;;18.85;100.00
29315;BME280;16320;53.954;9.506;2023-05-12T09:42:41;101730.69;;;18.77;100.00
29315;BME280;16320;53.954;9.506;2023-05-12T09:45:47;101717.72;;;18.85;100.00
29315;BME280;16320;53.954;9.506;2023-05-12T09:48:57;101717.03;;;19.07;100.00
29315;BME280;16320;53.954;9.506;2023-05-12T09:52:03;101709.94;;;19.32;100.00
29315;BME280;16320;53.954;9.506;2023-05-12T09:55:11;101720.13;;;19.38;100.00
29315;BME280;16320;53.954;9.506;2023-05-12T09:58:19;101706.13;;;19.23;100.00
29315;BME280;16320;53.954;9.506;2023-05-12T10:01:26;101714.41;;;19.31;100.00
29315;BME280;16320;53.954;9.506;2023-05-12T10:04:49;101704.09;;;19.51;100.00
29315;BME280;16320;53.954;9.506;2023-05-12T10:07:59;101700.03;;;19.82;100.00
29315;BME280;16320;53.954;9.506;2023-05-12T10:11:14;101698.50;;;20.02;100.00
29315;BME280;16320;53.954;9.506;2023-05-12T10:14:31;101695.88;;;20.14;100.00
29315;BME280;16320;53.954;9.506;2023-05-12T10:17:40;101702.03;;;20.14;100.00
29315;BME280;16320;53.954;9.506;2023-05-12T10:20:46;101696.94;;;20.11;100.00
29315;BME280;16320;53.954;9.506;2023-05-12T10:23:51;101692.63;;;20.21;100.00
29315;BME280;16320;53.954;9.506;2023-05-12T10:27:00;101703.88;;;20.14;100.00
29315;BME280;16320;53.954;9.506;2023-05-12T10:30:09;101702.22;;;19.88;100.00
29315;BME280;16320;53.954;9.506;2023-05-12T10:33:13;101706.19;;;19.58;100.00
29315;BME280;16320;53.954;9.506;2023-05-12T10:36:19;101703.19;;;19.39;100.00
29315;BME280;16320;53.954;9.506;2023-05-12T10:39:30;101707.03;;;19.35;100.00
29315;BME280;16320;53.954;9.506;2023-05-12T10:42:39;101697.75;;;19.65;100.00
29315;BME280;16320;53.954;9.506;2023-05-12T10:46:07;101696.25;;;20.32;100.00
29315;BME280;16320;53.954;9.506;2023-05-12T10:49:14;101691.78;;;20.43;100.00
29315;BME280;16320;53.954;9.506;2023-05-12T10:52:19;101696.19;;;19.98;100.00
29315;BME280;16320;53.954;9.506;2023-05-12T10:55:40;101698.09;;;19.60;100.00
29315;BME280;16320;53.954;9.506;2023-05-12T10:59:11;101692.69;;;19.25;100.00
29315;BME280;16320;53.954;9.506;2023-05-12T11:02:21;101699.56;;;19.16;100.00
29315;BME280;16320;53.954;9.506;2023-05-12T11:05:33;101699.91;;;19.84;100.00
29315;BME280;16320;53.954;9.506;2023-05-12T11:08:39;101700.41;;;19.89;100.00
29315;BME280;16320;53.954;9.506;2023-05-12T11:11:46;101699.53;;;19.64;100.00
29315;BME280;16320;53.954;9.506;2023-05-12T11:14:51;101706.09;;;19.84;100.00
29315;BME280;16320;53.954;9.506;2023-05-12T11:17:55;101709.66;;;20.07;100.00
29315;BME280;16320;53.954;9.506;2023-05-12T11:21:09;101701.38;;;20.57;100.00
29315;BME280;16320;53.954;9.506;2023-05-12T11:24:15;101698.28;;;21.30;100.00
29315;BME280;16320;53.954;9.506;2023-05-12T11:27:20;101692.66;;;21.76;100.00
29315;BME280;16320;53.954;9.506;2023-05-12T11:30:26;101695.09;;;22.22;100.00
29315;BME280;16320;53.954;9.506;2023-05-12T11:33:31;101706.25;;;22.48;90.24
29315;BME280;16320;53.954;9.506;2023-05-12T11:36:43;101696.25;;;22.50;100.00
29315;BME280;16320;53.954;9.506;2023-05-12T11:39:49;101688.44;;;22.68;100.00
29315;BME280;16320;53.954;9.506;2023-05-12T11:42:56;101689.06;;;22.81;100.00
29315;BME280;16320;53.954;9.506;2023-05-12T11:46:06;101693.41;;;23.23;100.00
29315;BME280;16320;53.954;9.506;2023-05-12T11:49:14;101691.00;;;23.30;59.06
29315;BME280;16320;53.954;9.506;2023-05-12T11:52:35;101694.25;;;23.14;74.26
29315;BME280;16320;53.954;9.506;2023-05-12T11:55:54;101693.25;;;23.25;68.30
29315;BME280;16320;53.954;9.506;2023-05-12T11:59:00;101697.22;;;23.20;77.54
29315;BME280;16320;53.954;9.506;2023-05-12T12:02:07;101700.09;;;22.98;100.00
29315;BME280;16320;53.954;9.506;2023-05-12T12:05:22;101688.31;;;23.30;82.98
29315;BME280;16320;53.954;9.506;2023-05-12T12:08:28;101694.84;;;23.56;66.16
29315;BME280;16320;53.954;9.506;2023-05-12T12:11:42;101700.09;;;23.87;100.00
29315;BME280;16320;53.954;9.506;2023-05-12T12:14:54;101692.84;;;23.78;68.81
29315;BME280;16320;53.954;9.506;2023-05-12T12:18:24;101696.97;;;23.72;74.93
29315;BME280;16320;53.954;9.506;2023-05-12T12:30:35;101693.56;;;24.19;99.57
29315;BME280;16320;53.954;9.506;2023-05-12T12:34:46;101700.66;;;23.91;53.74
29315;BME280;16320;53.954;9.506;2023-05-12T12:43:11;101698.78;;;23.43;70.38
29315;BME280;16320;53.954;9.506;2023-05-12T12:46:28;101703.03;;;23.45;86.44
29315;BME280;16320;53.954;9.506;2023-05-12T12:49:39;101688.06;;;23.52;72.63
29315;BME280;16320;53.954;9.506;2023-05-12T12:52:46;101688.94;;;23.53;81.88
29315;BME280;16320;53.954;9.506;2023-05-12T12:55:52;101689.75;;;23.44;74.37
29315;BME280;16320;53.954;9.506;2023-05-12T12:58:56;101695.66;;;23.28;61.48
29315;BME280;16320;53.954;9.506;2023-05-12T13:02:01;101690.00;;;23.11;71.76
29315;BME280;16320;53.954;9.506;2023-05-12T13:05:07;101698.50;;;22.85;72.59
29315;BME280;16320;53.954;9.506;2023-05-12T13:08:11;101692.38;;;22.64;86.72
29315;BME280;16320;53.954;9.506;2023-05-12T13:11:15;101692.34;;;22.54;64.36
29315;BME280;16320;53.954;9.506;2023-05-12T13:14:20;101694.25;;;22.42;66.76
29315;BME280;16320;53.954;9.506;2023-05-12T13:17:32;101691.41;;;22.34;77.85
29315;BME280;16320;53.954;9.506;2023-05-12T13:20:41;101691.44;;;22.44;76.62
29315;BME280;16320;53.954;9.506;2023-05-12T13:23:47;101694.44;;;22.51;82.00
29315;BME280;16320;53.954;9.506;2023-05-12T13:26:57;101693.44;;;22.52;55.60
29315;BME280;16320;53.954;9.506;2023-05-12T13:30:03;101692.03;;;22.47;57.28
29315;BME280;16320;53.954;9.506;2023-05-12T13:33:09;101692.03;;;22.47;53.63
29315;BME280;16320;53.954;9.506;2023-05-12T13:36:13;101699.69;;;22.31;61.29
29315;BME280;16320;53.954;9.506;2023-05-12T13:39:18;101682.41;;;22.24;77.19
29315;BME280;16320;53.954;9.506;2023-05-12T13:42:24;101686.44;;;22.29;72.46
29315;BME280;16320;53.954;9.506;2023-05-12T13:45:29;101686.31;;;22.31;65.44
29315;BME280;16320;53.954;9.506;2023-05-12T13:48:34;101682.63;;;22.32;79.51
29315;BME280;16320;53.954;9.506;2023-05-12T13:51:39;101673.25;;;22.17;73.81
29315;BME280;16320;53.954;9.506;2023-05-12T13:54:43;101671.78;;;22.12;70.84
29315;BME280;16320;53.954;9.506;2023-05-12T13:57:53;101683.94;;;22.17;59.27
29315;BME280;16320;53.954;9.506;2023-05-12T14:00:57;101687.97;;;22.32;70.83
29315;BME280;16320;53.954;9.506;2023-05-12T14:04:03;101681.78;;;22.32;73.68
29315;BME280;16320;53.954;9.506;2023-05-12T14:07:08;101674.22;;;22.16;56.48
29315;BME280;16320;53.954;9.506;2023-05-12T14:10:15;101677.94;;;22.03;43.68
29315;BME280;16320;53.954;9.506;2023-05-12T14:13:21;101682.63;;;21.90;51.93
29315;BME280;16320;53.954;9.506;2023-05-12T14:16:28;101672.03;;;21.67;51.39
29315;BME280;16320;53.954;9.506;2023-05-12T14:19:33;101678.63;;;21.63;64.35
29315;BME280;16320;53.954;9.506;2023-05-12T14:22:39;101664.19;;;21.66;43.03
29315;BME280;16320;53.954;9.506;2023-05-12T14:25:44;101672.78;;;21.69;66.44
29315;BME280;16320;53.954;9.506;2023-05-12T14:28:49;101658.91;;;21.75;49.98
29315;BME280;16320;53.954;9.506;2023-05-12T14:31:56;101660.84;;;21.73;60.51
29315;BME280;16320;53.954;9.506;2023-05-12T14:35:00;101670.63;;;21.63;59.24
29315;BME280;16320;53.954;9.506;2023-05-12T14:38:05;101663.94;;;21.57;59.51
29315;BME280;16320;53.954;9.506;2023-05-12T14:41:12;101672.97;;;21.45;47.43
29315;BME280;16320;53.954;9.506;2023-05-12T14:44:16;101669.16;;;21.59;62.14
29315;BME280;16320;53.954;9.506;2023-05-12T14:47:21;101663.13;;;21.78;61.59
29315;BME280;16320;53.954;9.506;2023-05-12T14:50:27;101659.69;;;22.08;60.69
29315;BME280;16320;53.954;9.506;2023-05-12T14:53:34;101663.19;;;22.30;58.72
29315;BME280;16320;53.954;9.506;2023-05-12T14:56:38;101667.50;;;22.21;60.25
29315;BME280;16320;53.954;9.506;2023-05-12T14:59:51;101667.78;;;21.97;62.24
29315;BME280;16320;53.954;9.506;2023-05-12T15:03:06;101673.75;;;21.68;62.29
29315;BME280;16320;53.954;9.506;2023-05-12T15:06:12;101670.19;;;21.47;72.20
29315;BME280;16320;53.954;9.506;2023-05-12T15:09:19;101673.13;;;21.32;74.71
29315;BME280;16320;53.954;9.506;2023-05-12T15:12:26;101676.34;;;21.15;69.45
29315;BME280;16320;53.954;9.506;2023-05-12T15:15:35;101687.06;;;20.92;89.71
29315;BME280;16320;53.954;9.506;2023-05-12T15:18:42;101689.38;;;20.74;67.58
29315;BME280;16320;53.954;9.506;2023-05-12T15:21:48;101685.00;;;20.62;77.74
29315;BME280;16320;53.954;9.506;2023-05-12T15:25:00;101685.97;;;20.49;95.86
29315;BME280;16320;53.954;9.506;2023-05-12T15:28:04;101682.44;;;20.38;92.26
29315;BME280;16320;53.954;9.506;2023-05-12T15:31:09;101687.03;;;20.36;100.00
29315;BME280;16320;53.954;9.506;2023-05-12T15:34:13;101685.94;;;20.27;95.94
29315;BME280;16320;53.954;9.506;2023-05-12T15:37:18;101682.69;;;20.35;64.16
29315;BME280;16320;53.954;9.506;2023-05-12T15:40:24;101681.22;;;20.42;91.45
29315;BME280;16320;53.954;9.506;2023-05-12T15:43:29;101684.88;;;20.29;99.90
29315;BME280;16320;53.954;9.506;2023-05-12T15:46:35;101691.03;;;20.19;80.84
29315;BME280;16320;53.954;9.506;2023-05-12T15:49:40;101686.03;;;20.14;97.81
29315;BME280;16320;53.954;9.506;2023-05-12T15:52:47;101680.22;;;20.09;100.00
29315;BME280;16320;53.954;9.506;2023-05-12T15:56:09;101688.91;;;20.00;100.00
29315;BME280;16320;53.954;9.506;2023-05-12T15:59:15;101685.63;;;19.96;100.00
29315;BME280;16320;53.954;9.506;2023-05-12T16:02:20;101687.69;;;19.92;100.00
29315;BME280;16320;53.954;9.506;2023-05-12T16:05:25;101694.75;;;19.93;100.00
29315;BME280;16320;53.954;9.506;2023-05-12T16:08:32;101684.34;;;20.02;100.00
29315;BME280;16320;53.954;9.506;2023-05-12T16:11:38;101690.63;;;20.01;100.00
29315;BME280;16320;53.954;9.506;2023-05-12T16:14:49;101695.19;;;19.87;100.00
29315;BME280;16320;53.954;9.506;2023-05-12T16:18:00;101682.75;;;19.75;100.00
29315;BME280;16320;53.954;9.506;2023-05-12T16:21:06;101685.75;;;19.70;100.00
29315;BME280;16320;53.954;9.506;2023-05-12T16:24:12;101687.09;;;19.65;100.00